KCXO/CXO METAR and TAF weather

Enter ICAO airport designator
Station Type Date Time Source
KCXO METAR 2018/01/19 16:53 UTC NOAA

KCXO 191653Z 13006KT 10SM OVC042 10/03 A3031 RMK AO2 SLP262 T01000028


Station Type Date Time Source
KCXO Decoded METAR 2018/01/19 16:53 UTC NOAA

LONE STAR EXECUTIVE AIRPORT, TX, United States (KCXO) 30-21N 95-25W 75M
Jan 19, 2018 - 11:53 AM EST / 2018.01.19 1653 UTC
Wind: from the SE (130 degrees) at 7 MPH (6 KT):0
Visibility: 10 mile(s):0
Sky conditions: overcast
Temperature: 50.0 F (10.0 C)
Dew Point: 37.0 F (2.8 C)
Relative Humidity: 60%
Pressure (altimeter): 30.31 in. Hg (1026 hPa)
ob: KCXO 191653Z 13006KT 10SM OVC042 10/03 A3031 RMK AO2 SLP262 T01000028
cycle: 17

Station Type Date Time Source
KCXO TAF 2018/01/19 12:42 UTC NOAA

TAF KCXO 191141Z 1912/2012 00000KT P6SM OVC045
FM191500 11003KT P6SM OVC035
FM200000 13004KT P6SM OVC025
FM200600 14007KT 5SM BR OVC009


Example: see airport list